sensor_id;sensor_type;location;lat;lon;timestamp;temperature;humidity
22416;DHT22;12204;50.600;4.608;2023-08-12T00:01:24;25.70;79.60
22416;DHT22;12204;50.600;4.608;2023-08-12T00:06:28;25.70;79.80
22416;DHT22;12204;50.600;4.608;2023-08-12T00:11:31;25.70;79.70
22416;DHT22;12204;50.600;4.608;2023-08-12T00:16:36;25.70;79.70
22416;DHT22;12204;50.600;4.608;2023-08-12T00:21:40;25.70;79.50
22416;DHT22;12204;50.600;4.608;2023-08-12T00:26:43;25.70;79.40
22416;DHT22;12204;50.600;4.608;2023-08-12T00:31:48;25.70;79.40
22416;DHT22;12204;50.600;4.608;2023-08-12T00:36:52;25.70;79.30
22416;DHT22;12204;50.600;4.608;2023-08-12T00:41:57;25.70;79.30
22416;DHT22;12204;50.600;4.608;2023-08-12T00:47:02;25.70;79.30
22416;DHT22;12204;50.600;4.608;2023-08-12T00:52:05;25.80;79.60
22416;DHT22;12204;50.600;4.608;2023-08-12T00:57:09;25.70;79.50
22416;DHT22;12204;50.600;4.608;2023-08-12T01:02:14;25.80;79.40
22416;DHT22;12204;50.600;4.608;2023-08-12T01:07:18;25.70;79.30
22416;DHT22;12204;50.600;4.608;2023-08-12T01:12:26;25.80;79.30
22416;DHT22;12204;50.600;4.608;2023-08-12T01:17:37;25.80;79.30
22416;DHT22;12204;50.600;4.608;2023-08-12T01:22:44;25.80;79.20
22416;DHT22;12204;50.600;4.608;2023-08-12T01:27:49;25.80;79.40
22416;DHT22;12204;50.600;4.608;2023-08-12T01:32:55;25.80;79.60
22416;DHT22;12204;50.600;4.608;2023-08-12T01:38:04;25.80;79.40
22416;DHT22;12204;50.600;4.608;2023-08-12T01:43:10;25.80;79.30
22416;DHT22;12204;50.600;4.608;2023-08-12T01:48:14;25.70;79.20
22416;DHT22;12204;50.600;4.608;2023-08-12T01:53:17;25.70;79.40
22416;DHT22;12204;50.600;4.608;2023-08-12T01:58:22;25.70;79.50
22416;DHT22;12204;50.600;4.608;2023-08-12T02:03:26;25.80;79.60
22416;DHT22;12204;50.600;4.608;2023-08-12T02:08:30;25.80;79.50
22416;DHT22;12204;50.600;4.608;2023-08-12T02:13:35;25.70;79.40
22416;DHT22;12204;50.600;4.608;2023-08-12T02:18:38;25.70;80.10
22416;DHT22;12204;50.600;4.608;2023-08-12T02:23:42;25.70;79.40
22416;DHT22;12204;50.600;4.608;2023-08-12T02:28:47;25.80;79.60
22416;DHT22;12204;50.600;4.608;2023-08-12T02:33:51;25.70;79.40
22416;DHT22;12204;50.600;4.608;2023-08-12T02:38:54;25.70;79.30
22416;DHT22;12204;50.600;4.608;2023-08-12T02:43:59;25.80;79.30
22416;DHT22;12204;50.600;4.608;2023-08-12T02:49:03;25.80;79.20
22416;DHT22;12204;50.600;4.608;2023-08-12T02:54:07;25.80;79.20
22416;DHT22;12204;50.600;4.608;2023-08-12T02:59:12;25.80;79.20
22416;DHT22;12204;50.600;4.608;2023-08-12T03:04:15;25.80;79.20
22416;DHT22;12204;50.600;4.608;2023-08-12T03:09:19;25.80;79.20
22416;DHT22;12204;50.600;4.608;2023-08-12T03:14:24;25.80;79.20
22416;DHT22;12204;50.600;4.608;2023-08-12T03:19:31;25.80;79.40
22416;DHT22;12204;50.600;4.608;2023-08-12T03:24:35;25.80;79.40
22416;DHT22;12204;50.600;4.608;2023-08-12T03:29:40;25.80;79.40
22416;DHT22;12204;50.600;4.608;2023-08-12T03:34:44;25.80;79.30
22416;DHT22;12204;50.600;4.608;2023-08-12T03:39:48;25.70;79.40
22416;DHT22;12204;50.600;4.608;2023-08-12T03:44:53;25.80;79.40
22416;DHT22;12204;50.600;4.608;2023-08-12T03:49:57;25.80;79.10
22416;DHT22;12204;50.600;4.608;2023-08-12T03:55:00;25.80;79.20
22416;DHT22;12204;50.600;4.608;2023-08-12T04:00:07;25.80;79.30
22416;DHT22;12204;50.600;4.608;2023-08-12T04:05:15;25.80;79.20
22416;DHT22;12204;50.600;4.608;2023-08-12T04:10:19;25.80;79.20
22416;DHT22;12204;50.600;4.608;2023-08-12T04:15:24;25.80;79.20
22416;DHT22;12204;50.600;4.608;2023-08-12T04:20:27;25.80;79.30
22416;DHT22;12204;50.600;4.608;2023-08-12T04:25:31;25.70;79.20
22416;DHT22;12204;50.600;4.608;2023-08-12T04:30:36;25.70;79.40
22416;DHT22;12204;50.600;4.608;2023-08-12T04:35:44;25.80;79.60
22416;DHT22;12204;50.600;4.608;2023-08-12T04:40:52;25.80;79.30
22416;DHT22;12204;50.600;4.608;2023-08-12T04:45:57;25.80;79.30
22416;DHT22;12204;50.600;4.608;2023-08-12T04:51:01;25.80;79.40
22416;DHT22;12204;50.600;4.608;2023-08-12T04:56:08;25.80;79.30
22416;DHT22;12204;50.600;4.608;2023-08-12T05:01:13;25.80;79.20
22416;DHT22;12204;50.600;4.608;2023-08-12T05:06:17;25.80;79.30
22416;DHT22;12204;50.600;4.608;2023-08-12T05:11:20;25.80;79.20
22416;DHT22;12204;50.600;4.608;2023-08-12T05:16:25;25.80;79.10
22416;DHT22;12204;50.600;4.608;2023-08-12T05:21:31;25.80;79.20
22416;DHT22;12204;50.600;4.608;2023-08-12T05:26:35;25.80;79.10
22416;DHT22;12204;50.600;4.608;2023-08-12T05:31:40;25.80;79.80
22416;DHT22;12204;50.600;4.608;2023-08-12T05:36:43;25.80;79.00
22416;DHT22;12204;50.600;4.608;2023-08-12T05:41:47;25.80;78.80
22416;DHT22;12204;50.600;4.608;2023-08-12T05:46:52;25.80;78.70
22416;DHT22;12204;50.600;4.608;2023-08-12T05:51:56;25.80;79.10
22416;DHT22;12204;50.600;4.608;2023-08-12T05:56:59;25.70;79.10
22416;DHT22;12204;50.600;4.608;2023-08-12T06:02:04;25.80;78.70
22416;DHT22;12204;50.600;4.608;2023-08-12T06:07:08;25.80;79.20
22416;DHT22;12204;50.600;4.608;2023-08-12T06:12:11;25.70;79.30
22416;DHT22;12204;50.600;4.608;2023-08-12T06:17:17;25.70;78.90
22416;DHT22;12204;50.600;4.608;2023-08-12T06:22:20;25.70;79.10
22416;DHT22;12204;50.600;4.608;2023-08-12T06:27:23;25.70;79.10
22416;DHT22;12204;50.600;4.608;2023-08-12T06:32:28;25.70;79.00
22416;DHT22;12204;50.600;4.608;2023-08-12T06:37:32;25.70;79.10
22416;DHT22;12204;50.600;4.608;2023-08-12T06:42:36;25.70;79.20
22416;DHT22;12204;50.600;4.608;2023-08-12T06:47:41;25.70;79.40
22416;DHT22;12204;50.600;4.608;2023-08-12T06:52:44;25.70;79.10
22416;DHT22;12204;50.600;4.608;2023-08-12T06:57:48;25.70;79.30
22416;DHT22;12204;50.600;4.608;2023-08-12T07:02:52;25.70;79.10
22416;DHT22;12204;50.600;4.608;2023-08-12T07:07:56;25.70;79.10
22416;DHT22;12204;50.600;4.608;2023-08-12T07:12:59;25.70;79.10
22416;DHT22;12204;50.600;4.608;2023-08-12T07:18:05;25.70;79.40
22416;DHT22;12204;50.600;4.608;2023-08-12T07:23:09;25.70;79.30
22416;DHT22;12204;50.600;4.608;2023-08-12T07:28:12;25.70;79.20
22416;DHT22;12204;50.600;4.608;2023-08-12T07:33:17;25.70;79.20
22416;DHT22;12204;50.600;4.608;2023-08-12T07:38:22;25.70;79.30
22416;DHT22;12204;50.600;4.608;2023-08-12T07:43:26;25.70;79.80
22416;DHT22;12204;50.600;4.608;2023-08-12T07:48:31;25.60;79.60
22416;DHT22;12204;50.600;4.608;2023-08-12T07:53:34;25.50;79.40
22416;DHT22;12204;50.600;4.608;2023-08-12T07:58:38;25.40;79.70
22416;DHT22;12204;50.600;4.608;2023-08-12T08:03:42;25.40;79.90
22416;DHT22;12204;50.600;4.608;2023-08-12T08:08:46;25.30;80.50
22416;DHT22;12204;50.600;4.608;2023-08-12T08:13:58;25.30;80.80
22416;DHT22;12204;50.600;4.608;2023-08-12T08:19:06;25.30;81.10
22416;DHT22;12204;50.600;4.608;2023-08-12T08:24:17;25.20;80.40
22416;DHT22;12204;50.600;4.608;2023-08-12T08:29:21;25.10;80.40
22416;DHT22;12204;50.600;4.608;2023-08-12T08:34:26;25.00;80.40
22416;DHT22;12204;50.600;4.608;2023-08-12T08:39:29;25.00;80.30
22416;DHT22;12204;50.600;4.608;2023-08-12T08:44:33;25.00;80.30
22416;DHT22;12204;50.600;4.608;2023-08-12T08:49:39;25.00;80.20
22416;DHT22;12204;50.600;4.608;2023-08-12T08:54:43;25.10;80.10
22416;DHT22;12204;50.600;4.608;2023-08-12T08:59:47;25.10;79.90
22416;DHT22;12204;50.600;4.608;2023-08-12T09:05:01;25.10;80.00
22416;DHT22;12204;50.600;4.608;2023-08-12T09:10:06;25.10;79.80
22416;DHT22;12204;50.600;4.608;2023-08-12T09:15:16;25.10;79.80
22416;DHT22;12204;50.600;4.608;2023-08-12T09:20:22;25.10;79.90
22416;DHT22;12204;50.600;4.608;2023-08-12T09:25:26;25.10;79.80
22416;DHT22;12204;50.600;4.608;2023-08-12T09:30:31;25.10;79.90
22416;DHT22;12204;50.600;4.608;2023-08-12T09:35:37;25.10;79.80
22416;DHT22;12204;50.600;4.608;2023-08-12T09:40:41;25.20;79.90
22416;DHT22;12204;50.600;4.608;2023-08-12T09:45:45;25.10;79.60
22416;DHT22;12204;50.600;4.608;2023-08-12T09:50:50;25.10;79.40
22416;DHT22;12204;50.600;4.608;2023-08-12T09:55:54;25.20;79.30
22416;DHT22;12204;50.600;4.608;2023-08-12T10:00:58;25.20;79.40
22416;DHT22;12204;50.600;4.608;2023-08-12T10:06:05;25.20;78.80
22416;DHT22;12204;50.600;4.608;2023-08-12T10:11:10;25.20;78.70
22416;DHT22;12204;50.600;4.608;2023-08-12T10:16:14;25.20;78.40
22416;DHT22;12204;50.600;4.608;2023-08-12T10:21:21;25.10;77.20
22416;DHT22;12204;50.600;4.608;2023-08-12T10:26:26;25.10;76.20
22416;DHT22;12204;50.600;4.608;2023-08-12T10:31:30;25.00;76.50
22416;DHT22;12204;50.600;4.608;2023-08-12T10:36:41;24.90;77.00
22416;DHT22;12204;50.600;4.608;2023-08-12T10:42:03;24.80;78.10
22416;DHT22;12204;50.600;4.608;2023-08-12T10:47:12;24.90;78.60
22416;DHT22;12204;50.600;4.608;2023-08-12T10:52:38;24.90;78.90
22416;DHT22;12204;50.600;4.608;2023-08-12T10:57:43;24.90;79.40
22416;DHT22;12204;50.600;4.608;2023-08-12T11:02:50;25.00;79.90
22416;DHT22;12204;50.600;4.608;2023-08-12T11:07:58;25.00;80.00
22416;DHT22;12204;50.600;4.608;2023-08-12T11:13:05;25.00;78.80
22416;DHT22;12204;50.600;4.608;2023-08-12T11:18:09;24.90;78.30
22416;DHT22;12204;50.600;4.608;2023-08-12T11:23:17;24.90;77.70
22416;DHT22;12204;50.600;4.608;2023-08-12T11:28:24;24.90;77.00
22416;DHT22;12204;50.600;4.608;2023-08-12T11:33:27;24.90;77.50
22416;DHT22;12204;50.600;4.608;2023-08-12T11:38:33;25.00;76.70
22416;DHT22;12204;50.600;4.608;2023-08-12T11:43:36;24.90;76.20
22416;DHT22;12204;50.600;4.608;2023-08-12T11:48:40;24.80;76.00
22416;DHT22;12204;50.600;4.608;2023-08-12T11:53:45;24.80;75.30
22416;DHT22;12204;50.600;4.608;2023-08-12T11:58:49;24.90;74.50
22416;DHT22;12204;50.600;4.608;2023-08-12T12:03:55;24.80;73.60
22416;DHT22;12204;50.600;4.608;2023-08-12T12:09:02;24.80;74.20
22416;DHT22;12204;50.600;4.608;2023-08-12T12:14:10;24.80;73.50
22416;DHT22;12204;50.600;4.608;2023-08-12T12:19:16;24.80;73.00
22416;DHT22;12204;50.600;4.608;2023-08-12T12:24:29;24.90;72.60
22416;DHT22;12204;50.600;4.608;2023-08-12T12:29:33;24.90;71.60
22416;DHT22;12204;50.600;4.608;2023-08-12T12:34:36;24.90;71.60
22416;DHT22;12204;50.600;4.608;2023-08-12T12:39:42;24.80;71.20
22416;DHT22;12204;50.600;4.608;2023-08-12T12:44:45;24.80;70.90
22416;DHT22;12204;50.600;4.608;2023-08-12T12:49:49;24.80;70.90
22416;DHT22;12204;50.600;4.608;2023-08-12T12:54:54;24.90;70.20
22416;DHT22;12204;50.600;4.608;2023-08-12T12:59:59;24.80;70.30
22416;DHT22;12204;50.600;4.608;2023-08-12T13:05:03;24.90;70.20
22416;DHT22;12204;50.600;4.608;2023-08-12T13:10:15;24.90;71.10
22416;DHT22;12204;50.600;4.608;2023-08-12T13:15:35;24.90;69.20
22416;DHT22;12204;50.600;4.608;2023-08-12T13:20:39;25.00;69.00
22416;DHT22;12204;50.600;4.608;2023-08-12T13:25:44;24.90;69.30
22416;DHT22;12204;50.600;4.608;2023-08-12T13:30:48;25.00;69.20
22416;DHT22;12204;50.600;4.608;2023-08-12T13:35:51;25.00;68.40
22416;DHT22;12204;50.600;4.608;2023-08-12T13:40:56;25.00;67.80
22416;DHT22;12204;50.600;4.608;2023-08-12T13:46:00;25.00;67.30
22416;DHT22;12204;50.600;4.608;2023-08-12T13:51:36;25.00;66.90
22416;DHT22;12204;50.600;4.608;2023-08-12T13:56:42;25.10;66.00
22416;DHT22;12204;50.600;4.608;2023-08-12T14:01:45;25.10;65.40
22416;DHT22;12204;50.600;4.608;2023-08-12T14:06:48;25.10;65.80
22416;DHT22;12204;50.600;4.608;2023-08-12T14:11:55;25.10;65.00
22416;DHT22;12204;50.600;4.608;2023-08-12T14:16:58;25.10;65.10
22416;DHT22;12204;50.600;4.608;2023-08-12T14:22:02;25.20;64.40
22416;DHT22;12204;50.600;4.608;2023-08-12T14:27:08;25.10;64.60
22416;DHT22;12204;50.600;4.608;2023-08-12T14:32:12;25.30;63.50
22416;DHT22;12204;50.600;4.608;2023-08-12T14:37:17;25.30;63.00
22416;DHT22;12204;50.600;4.608;2023-08-12T14:42:22;25.30;63.30
22416;DHT22;12204;50.600;4.608;2023-08-12T14:47:26;25.30;62.80
22416;DHT22;12204;50.600;4.608;2023-08-12T14:52:32;25.20;62.60
22416;DHT22;12204;50.600;4.608;2023-08-12T14:57:37;25.30;62.70
22416;DHT22;12204;50.600;4.608;2023-08-12T15:02:40;25.30;61.90
22416;DHT22;12204;50.600;4.608;2023-08-12T15:07:44;25.30;61.10
22416;DHT22;12204;50.600;4.608;2023-08-12T15:12:49;25.30;61.10
22416;DHT22;12204;50.600;4.608;2023-08-12T15:17:53;25.30;61.20
22416;DHT22;12204;50.600;4.608;2023-08-12T15:22:56;25.30;60.40
22416;DHT22;12204;50.600;4.608;2023-08-12T15:28:01;25.30;60.00
22416;DHT22;12204;50.600;4.608;2023-08-12T15:33:05;25.30;60.20
22416;DHT22;12204;50.600;4.608;2023-08-12T15:38:09;25.40;59.90
22416;DHT22;12204;50.600;4.608;2023-08-12T15:43:14;25.40;60.30
22416;DHT22;12204;50.600;4.608;2023-08-12T15:48:18;25.50;60.20
22416;DHT22;12204;50.600;4.608;2023-08-12T15:53:21;25.50;59.80
22416;DHT22;12204;50.600;4.608;2023-08-12T15:58:26;25.60;60.40
22416;DHT22;12204;50.600;4.608;2023-08-12T16:03:30;25.60;60.00
22416;DHT22;12204;50.600;4.608;2023-08-12T16:14:09;25.70;61.70
22416;DHT22;12204;50.600;4.608;2023-08-12T16:19:13;25.70;61.70
22416;DHT22;12204;50.600;4.608;2023-08-12T16:24:16;25.70;61.90
22416;DHT22;12204;50.600;4.608;2023-08-12T16:29:21;25.70;61.90
22416;DHT22;12204;50.600;4.608;2023-08-12T16:34:25;25.80;61.50
22416;DHT22;12204;50.600;4.608;2023-08-12T16:39:29;25.80;61.10
22416;DHT22;12204;50.600;4.608;2023-08-12T16:44:33;25.80;61.10
22416;DHT22;12204;50.600;4.608;2023-08-12T16:49:37;25.90;60.60
22416;DHT22;12204;50.600;4.608;2023-08-12T16:54:41;25.80;59.70
22416;DHT22;12204;50.600;4.608;2023-08-12T16:59:45;25.80;60.30
22416;DHT22;12204;50.600;4.608;2023-08-12T17:10:24;25.90;61.00
22416;DHT22;12204;50.600;4.608;2023-08-12T17:16:26;25.80;59.90
22416;DHT22;12204;50.600;4.608;2023-08-12T17:54:05;25.80;60.10
22416;DHT22;12204;50.600;4.608;2023-08-12T17:59:15;25.80;60.10
22416;DHT22;12204;50.600;4.608;2023-08-12T18:04:19;25.80;59.80
22416;DHT22;12204;50.600;4.608;2023-08-12T18:09:26;25.80;60.20
22416;DHT22;12204;50.600;4.608;2023-08-12T18:14:30;25.70;60.30
22416;DHT22;12204;50.600;4.608;2023-08-12T18:19:34;25.70;60.40
22416;DHT22;12204;50.600;4.608;2023-08-12T18:24:49;25.60;59.90
22416;DHT22;12204;50.600;4.608;2023-08-12T18:29:53;25.60;60.00
22416;DHT22;12204;50.600;4.608;2023-08-12T18:34:58;25.50;60.80
22416;DHT22;12204;50.600;4.608;2023-08-12T18:40:46;25.50;60.00
22416;DHT22;12204;50.600;4.608;2023-08-12T18:45:49;25.50;60.30
22416;DHT22;12204;50.600;4.608;2023-08-12T18:50:53;25.50;60.50
22416;DHT22;12204;50.600;4.608;2023-08-12T18:56:15;25.50;61.30
22416;DHT22;12204;50.600;4.608;2023-08-12T19:01:19;25.60;61.60
22416;DHT22;12204;50.600;4.608;2023-08-12T19:06:43;25.60;61.90
22416;DHT22;12204;50.600;4.608;2023-08-12T19:11:48;25.60;61.90
22416;DHT22;12204;50.600;4.608;2023-08-12T19:17:15;25.60;61.80
22416;DHT22;12204;50.600;4.608;2023-08-12T19:22:39;25.60;62.30
22416;DHT22;12204;50.600;4.608;2023-08-12T19:27:44;25.60;62.40
22416;DHT22;12204;50.600;4.608;2023-08-12T19:32:48;25.60;63.00
22416;DHT22;12204;50.600;4.608;2023-08-12T19:37:55;25.60;63.20
22416;DHT22;12204;50.600;4.608;2023-08-12T19:43:02;25.60;63.60
22416;DHT22;12204;50.600;4.608;2023-08-12T19:48:06;25.60;64.10
22416;DHT22;12204;50.600;4.608;2023-08-12T19:53:09;25.60;64.20
22416;DHT22;12204;50.600;4.608;2023-08-12T19:58:15;25.60;64.50
22416;DHT22;12204;50.600;4.608;2023-08-12T20:03:18;25.60;64.70
22416;DHT22;12204;50.600;4.608;2023-08-12T20:08:22;25.60;64.90
22416;DHT22;12204;50.600;4.608;2023-08-12T20:13:27;25.60;65.10
22416;DHT22;12204;50.600;4.608;2023-08-12T20:18:30;25.60;65.30
22416;DHT22;12204;50.600;4.608;2023-08-12T20:23:34;25.60;65.40
22416;DHT22;12204;50.600;4.608;2023-08-12T20:28:39;25.60;65.60
22416;DHT22;12204;50.600;4.608;2023-08-12T20:33:43;25.60;65.70
22416;DHT22;12204;50.600;4.608;2023-08-12T20:38:46;25.60;66.00
22416;DHT22;12204;50.600;4.608;2023-08-12T20:44:10;25.60;66.00
22416;DHT22;12204;50.600;4.608;2023-08-12T20:49:53;25.60;66.40
22416;DHT22;12204;50.600;4.608;2023-08-12T20:56:15;25.60;67.00
22416;DHT22;12204;50.600;4.608;2023-08-12T21:01:28;25.60;67.20
22416;DHT22;12204;50.600;4.608;2023-08-12T21:07:02;25.60;67.40
22416;DHT22;12204;50.600;4.608;2023-08-12T21:35:58;25.60;67.40
22416;DHT22;12204;50.600;4.608;2023-08-12T21:41:02;25.60;67.70
22416;DHT22;12204;50.600;4.608;2023-08-12T21:46:07;25.60;68.00
22416;DHT22;12204;50.600;4.608;2023-08-12T21:51:10;25.60;68.60
22416;DHT22;12204;50.600;4.608;2023-08-12T21:56:16;25.60;68.70
22416;DHT22;12204;50.600;4.608;2023-08-12T22:01:21;25.60;68.90
22416;DHT22;12204;50.600;4.608;2023-08-12T22:06:25;25.60;69.00
22416;DHT22;12204;50.600;4.608;2023-08-12T22:11:28;25.70;69.20
22416;DHT22;12204;50.600;4.608;2023-08-12T22:16:33;25.70;69.80
22416;DHT22;12204;50.600;4.608;2023-08-12T22:21:37;25.80;69.70
22416;DHT22;12204;50.600;4.608;2023-08-12T22:26:40;25.80;70.10
22416;DHT22;12204;50.600;4.608;2023-08-12T22:31:45;25.70;70.20
22416;DHT22;12204;50.600;4.608;2023-08-12T22:36:49;25.70;70.40
22416;DHT22;12204;50.600;4.608;2023-08-12T22:41:53;25.70;70.40
22416;DHT22;12204;50.600;4.608;2023-08-12T22:46:57;25.80;70.60
22416;DHT22;12204;50.600;4.608;2023-08-12T22:52:01;25.70;71.20
22416;DHT22;12204;50.600;4.608;2023-08-12T22:57:05;25.70;71.40
22416;DHT22;12204;50.600;4.608;2023-08-12T23:02:10;25.70;71.60
22416;DHT22;12204;50.600;4.608;2023-08-12T23:07:14;25.70;71.70
22416;DHT22;12204;50.600;4.608;2023-08-12T23:12:18;25.80;72.00
22416;DHT22;12204;50.600;4.608;2023-08-12T23:17:23;25.70;72.00
22416;DHT22;12204;50.600;4.608;2023-08-12T23:22:26;25.70;72.10
22416;DHT22;12204;50.600;4.608;2023-08-12T23:27:30;25.70;72.20
22416;DHT22;12204;50.600;4.608;2023-08-12T23:32:35;25.70;72.50
22416;DHT22;12204;50.600;4.608;2023-08-12T23:37:40;25.70;72.70
22416;DHT22;12204;50.600;4.608;2023-08-12T23:42:43;25.70;72.90
22416;DHT22;12204;50.600;4.608;2023-08-12T23:47:48;25.80;73.00
22416;DHT22;12204;50.600;4.608;2023-08-12T23:52:52;25.80;73.00
22416;DHT22;12204;50.600;4.608;2023-08-12T23:57:55;25.80;72.90
